Camellia — VRCP9 — position and weather

sailwx.info

Track history (hours):
 
Tides and Currents Weather Stations Pressure Air Temp Water Temp Dewpoint Dewpoint Depression Visibility Wind Speed Wind Dir Waves Ship Positions

Camellia

Last reported at 2016-Sep-27 19:33 UTC. Time now 2016-Sep-29 06:43 UTC.
Position N 15°57' W 061°31'.

Length 222 m; draft 9.2 m.

Type: Ship (hazmat cat C). MMSI: 477791900.

Date/timePositionNaut miles runAvg speedWind from/ knotsBaromVisibWave heightAir tempDewpointWater temp
2016-Sep-27 19:33N 15°57' W 061°31'17 3.3
2016-Sep-27 14:32N 16°14' W 061°33'0 0.0
2016-Sep-27 13:32N 16°14' W 061°33'0 0.0
2016-Sep-27 10:32N 16°14' W 061°33'0 0.0
2016-Sep-27 00:32N 16°14' W 061°33'0 0.0
2016-Sep-26 20:31N 16°14' W 061°33'0 0.0
2016-Sep-26 19:31N 16°14' W 061°33'0 0.0
2016-Sep-26 15:28N 16°14' W 061°33'0 0.0
2016-Sep-26 13:31N 16°14' W 061°33'0 0.0
2016-Sep-26 11:31N 16°14' W 061°33'8 2.6
2016-Sep-26 08:33N 16°07' W 061°28'  
2016-Sep-21 09:33N 39°08' W 029°18'2019.9
2016-Sep-21 08:33N 39°17' W 028°55'  
2016-Sep-18 19:33N 46°39' W 004°36'7719.3
2016-Sep-18 15:33N 46°59' W 002°47'1717.4
2016-Sep-18 14:34N 47°06' W 002°24'15 3.6
2016-Sep-18 10:19N 47°18' W 002°09'0 0.0
2016-Sep-18 09:31N 47°18' W 002°09'15 2.1
2016-Sep-18 02:33N 47°06' W 002°23'1514.5
2016-Sep-18 01:33N 46°60' W 002°42'2120.9
2016-Sep-18 00:33N 47°08' W 003°10'8520.1
2016-Sep-17 20:20N 47°44' W 005°04'  
Track history (hours):
 
Tides and Currents Weather Stations Pressure Air Temp Water Temp Dewpoint Dewpoint Depression Visibility Wind Speed Wind Dir Waves Ship Positions

Camellia

Last reported at 2016-Sep-27 19:33 UTC. Time now 2016-Sep-29 06:43 UTC.
Position N 15°57' W 061°31'.

Length 222 m; draft 9.2 m.

Type: Ship (hazmat cat C). MMSI: 477791900.

Date/timePositionNaut miles runAvg speedWind from/ knotsBaromVisibWave heightAir tempDewpointWater temp
2016-Sep-27 19:33N 15°57' W 061°31'17 3.3
2016-Sep-27 14:32N 16°14' W 061°33'0 0.0
2016-Sep-27 13:32N 16°14' W 061°33'0 0.0
2016-Sep-27 10:32N 16°14' W 061°33'0 0.0
2016-Sep-27 00:32N 16°14' W 061°33'0 0.0
2016-Sep-26 20:31N 16°14' W 061°33'0 0.0
2016-Sep-26 19:31N 16°14' W 061°33'0 0.0
2016-Sep-26 15:28N 16°14' W 061°33'0 0.0
2016-Sep-26 13:31N 16°14' W 061°33'0 0.0
2016-Sep-26 11:31N 16°14' W 061°33'8 2.6
2016-Sep-26 08:33N 16°07' W 061°28'  
2016-Sep-21 09:33N 39°08' W 029°18'2019.9
2016-Sep-21 08:33N 39°17' W 028°55'  
2016-Sep-18 19:33N 46°39' W 004°36'7719.3
2016-Sep-18 15:33N 46°59' W 002°47'1717.4
2016-Sep-18 14:34N 47°06' W 002°24'15 3.6
2016-Sep-18 10:19N 47°18' W 002°09'0 0.0
2016-Sep-18 09:31N 47°18' W 002°09'15 2.1
2016-Sep-18 02:33N 47°06' W 002°23'1514.5
2016-Sep-18 01:33N 46°60' W 002°42'2120.9
2016-Sep-18 00:33N 47°08' W 003°10'8520.1
2016-Sep-17 20:20N 47°44' W 005°04'  

Dump ship's entire track history